createdAt,value
2022-11-28T00:01:57.650Z,6.82
2022-11-28T00:06:06.485Z,6.82
2022-11-28T00:10:08.390Z,6.78
2022-11-28T00:14:10.833Z,6.73
2022-11-28T00:18:12.435Z,6.71
2022-11-28T00:22:14.009Z,6.69
2022-11-28T00:26:19.872Z,6.71
2022-11-28T00:30:21.395Z,6.73
2022-11-28T00:34:23.102Z,6.73
2022-11-28T00:38:24.646Z,6.72
2022-11-28T00:42:26.189Z,6.65
2022-11-28T00:46:27.974Z,6.65
2022-11-28T00:50:29.634Z,6.60
2022-11-28T00:54:31.204Z,6.58
2022-11-28T00:58:34.070Z,6.55
2022-11-28T01:02:35.638Z,6.53
2022-11-28T01:06:40.539Z,6.53
2022-11-28T01:10:43.551Z,6.50
2022-11-28T01:14:45.048Z,6.45
2022-11-28T01:18:46.593Z,6.45
2022-11-28T01:22:48.126Z,6.42
2022-11-28T01:26:49.661Z,6.46
2022-11-28T01:30:51.253Z,6.50
2022-11-28T01:34:52.793Z,6.50
2022-11-28T01:38:54.464Z,6.51
2022-11-28T01:42:55.992Z,6.51
2022-11-28T01:46:57.576Z,6.50
2022-11-28T01:51:04.497Z,6.48
2022-11-28T01:55:07.044Z,6.46
2022-11-28T01:59:11.549Z,6.43
2022-11-28T02:03:27.554Z,6.43
2022-11-28T02:07:29.175Z,6.45
2022-11-28T02:11:39.963Z,6.42
2022-11-28T02:16:06.958Z,6.45
2022-11-28T02:20:46.170Z,6.45
2022-11-28T02:25:09.209Z,6.45
2022-11-28T02:29:22.703Z,6.43
2022-11-28T02:33:33.251Z,6.43
2022-11-28T02:37:42.501Z,6.42
2022-11-28T02:41:50.366Z,6.43
2022-11-28T02:46:19.597Z,6.40
2022-11-28T02:50:21.236Z,6.40
2022-11-28T02:54:24.914Z,6.40
2022-11-28T02:58:26.911Z,6.42
2022-11-28T03:02:32.402Z,6.40
2022-11-28T03:06:52.126Z,6.42
2022-11-28T03:10:59.591Z,6.42
2022-11-28T03:15:04.484Z,6.40
2022-11-28T03:19:21.450Z,6.38
2022-11-28T03:23:40.863Z,6.40
2022-11-28T03:27:51.636Z,6.38
2022-11-28T03:31:58.322Z,6.39
2022-11-28T03:36:06.518Z,6.40
2022-11-28T03:40:12.834Z,6.38
2022-11-28T03:44:21.830Z,6.35
2022-11-28T03:48:27.442Z,6.33
2022-11-28T03:52:36.444Z,6.30
2022-11-28T03:56:50.031Z,6.27
2022-11-28T04:01:00.939Z,6.20
2022-11-28T04:05:23.900Z,6.17
2022-11-28T04:09:47.705Z,6.13
2022-11-28T04:13:57.961Z,6.11
2022-11-28T04:18:06.941Z,6.08
2022-11-28T04:22:27.041Z,6.06
2022-11-28T04:26:34.190Z,6.06
2022-11-28T04:30:37.559Z,6.08
2022-11-28T04:34:43.365Z,6.10
2022-11-28T04:38:54.301Z,6.06
2022-11-28T04:43:08.207Z,6.06
2022-11-28T04:47:10.373Z,6.05
2022-11-28T04:51:27.370Z,6.05
2022-11-28T04:55:38.240Z,6.05
2022-11-28T04:59:41.883Z,6.02
2022-11-28T05:03:43.826Z,5.99
2022-11-28T05:07:45.648Z,5.99
2022-11-28T05:11:47.364Z,5.99
2022-11-28T05:15:48.939Z,5.99
2022-11-28T05:19:50.463Z,5.98
2022-11-28T05:23:51.995Z,5.98
2022-11-28T05:27:53.558Z,5.98
2022-11-28T05:31:55.231Z,5.93
2022-11-28T05:36:02.020Z,5.88
2022-11-28T05:40:04.303Z,5.90
2022-11-28T05:44:05.860Z,5.90
2022-11-28T05:48:07.547Z,5.87
2022-11-28T05:52:09.143Z,5.87
2022-11-28T05:56:13.449Z,5.87
2022-11-28T06:00:15.426Z,5.90
2022-11-28T06:04:17.055Z,5.88
2022-11-28T06:08:18.689Z,5.85
2022-11-28T06:12:20.205Z,5.84
2022-11-28T06:16:29.873Z,5.84
2022-11-28T06:20:31.454Z,5.85
2022-11-28T06:24:33.125Z,5.85
2022-11-28T06:28:35.152Z,5.87
2022-11-28T06:32:36.730Z,5.88
2022-11-28T06:36:38.768Z,5.88
2022-11-28T06:40:40.352Z,5.88
2022-11-28T06:44:41.980Z,5.88
2022-11-28T06:48:44.501Z,5.92
2022-11-28T06:52:46.377Z,5.92
2022-11-28T06:56:47.969Z,5.95
2022-11-28T07:00:49.612Z,5.96
2022-11-28T07:04:51.540Z,5.95
2022-11-28T07:08:53.690Z,5.93
2022-11-28T07:12:59.353Z,5.96
2022-11-28T07:17:04.034Z,5.96
2022-11-28T07:21:05.736Z,5.99
2022-11-28T07:25:07.832Z,6.02
2022-11-28T07:29:14.969Z,6.02
2022-11-28T07:33:16.534Z,6.03
2022-11-28T07:37:18.230Z,6.03
2022-11-28T07:41:24.923Z,6.05
2022-11-28T07:45:41.847Z,6.10
2022-11-28T07:49:49.824Z,6.05
2022-11-28T07:53:51.562Z,6.05
2022-11-28T07:57:53.105Z,6.06
2022-11-28T08:01:54.820Z,6.08
2022-11-28T08:06:02.948Z,6.13
2022-11-28T08:10:06.442Z,6.11
2022-11-28T08:14:08.063Z,6.13
2022-11-28T08:18:09.865Z,6.17
2022-11-28T08:22:11.394Z,6.24
2022-11-28T08:26:16.178Z,6.30
2022-11-28T08:30:17.825Z,6.33
2022-11-28T08:34:19.420Z,6.38
2022-11-28T08:38:20.995Z,6.42
2022-11-28T08:42:22.579Z,6.45
2022-11-28T08:46:25.197Z,6.43
2022-11-28T08:50:26.764Z,6.40
2022-11-28T08:54:28.369Z,6.43
2022-11-28T08:58:29.916Z,6.45
2022-11-28T09:02:34.068Z,6.50
2022-11-28T09:06:38.716Z,6.53
2022-11-28T09:10:41.828Z,6.57
2022-11-28T09:14:43.449Z,6.63
2022-11-28T09:18:45.183Z,6.68
2022-11-28T09:22:47.482Z,6.73
2022-11-28T09:26:49.105Z,6.76
2022-11-28T09:30:50.801Z,6.79
2022-11-28T09:34:52.399Z,6.82
2022-11-28T09:38:53.940Z,6.81
2022-11-28T09:42:56.486Z,6.86
2022-11-28T09:47:01.414Z,6.90
2022-11-28T09:51:17.252Z,6.93
2022-11-28T09:55:18.736Z,6.94
2022-11-28T09:59:26.771Z,6.93
2022-11-28T10:03:41.334Z,6.93
2022-11-28T10:08:12.295Z,6.94
2022-11-28T10:12:22.941Z,6.96
2022-11-28T10:16:44.777Z,6.90
2022-11-28T10:20:52.448Z,6.94
2022-11-28T10:25:00.479Z,6.94
2022-11-28T10:29:11.621Z,6.97
2022-11-28T10:33:26.929Z,6.94
2022-11-28T10:37:31.473Z,6.89
2022-11-28T10:42:09.903Z,6.89
2022-11-28T10:46:33.005Z,6.87
2022-11-28T10:51:12.168Z,6.89
2022-11-28T10:55:38.568Z,6.91
2022-11-28T10:59:48.849Z,6.99
2022-11-28T11:03:50.481Z,7.04
2022-11-28T11:08:20.043Z,7.08
2022-11-28T11:12:26.896Z,7.14
2022-11-28T11:16:48.683Z,7.18
2022-11-28T11:20:50.849Z,7.23
2022-11-28T11:25:16.238Z,7.32
2022-11-28T11:29:22.645Z,7.36
2022-11-28T11:33:28.842Z,7.34
2022-11-28T11:37:32.636Z,7.41
2022-11-28T11:41:34.507Z,7.45
2022-11-28T11:45:36.401Z,7.48
2022-11-28T11:49:41.418Z,7.54
2022-11-28T11:53:44.040Z,7.57
2022-11-28T11:57:52.978Z,7.60
2022-11-28T12:02:02.255Z,7.67
2022-11-28T12:06:23.392Z,7.70
2022-11-28T12:10:27.763Z,7.77
2022-11-28T12:14:38.579Z,7.85
2022-11-28T12:18:52.549Z,7.91
2022-11-28T12:23:19.640Z,7.99
2022-11-28T12:27:21.096Z,8.04
2022-11-28T12:31:38.015Z,8.09
2022-11-28T12:35:50.447Z,8.12
2022-11-28T12:40:10.611Z,8.17
2022-11-28T12:44:30.707Z,8.21
2022-11-28T12:49:05.796Z,8.22
2022-11-28T12:53:32.006Z,8.22
2022-11-28T12:57:33.538Z,8.27
2022-11-28T13:02:06.713Z,8.31
2022-11-28T13:06:44.868Z,8.32
2022-11-28T13:11:08.846Z,8.37
2022-11-28T13:15:19.897Z,8.40
2022-11-28T13:19:39.766Z,8.46
2022-11-28T13:24:02.246Z,8.50
2022-11-28T13:28:32.723Z,8.54
2022-11-28T13:33:13.462Z,8.58
2022-11-28T13:46:26.936Z,8.58
2022-11-28T13:50:28.546Z,8.58
2022-11-28T13:54:30.008Z,8.57
2022-11-28T13:58:41.603Z,8.57
2022-11-28T14:02:47.636Z,8.54
2022-11-28T14:06:59.042Z,8.54
2022-11-28T14:11:32.826Z,8.49
2022-11-28T14:15:55.822Z,8.47
2022-11-28T14:20:17.348Z,8.46
2022-11-28T14:24:31.573Z,8.42
2022-11-28T14:28:37.736Z,8.42
2022-11-28T14:32:42.507Z,8.42
2022-11-28T14:36:45.237Z,8.39
2022-11-28T14:40:53.276Z,8.37
2022-11-28T14:45:03.402Z,8.32
2022-11-28T14:49:17.902Z,8.29
2022-11-28T14:53:38.115Z,8.25
2022-11-28T14:57:59.541Z,8.22
2022-11-28T15:02:12.934Z,8.17
2022-11-28T15:06:29.389Z,8.13
2022-11-28T15:10:52.974Z,8.07
2022-11-28T15:14:57.818Z,8.03
2022-11-28T15:19:06.097Z,7.95
2022-11-28T15:23:22.938Z,7.91
2022-11-28T15:27:26.928Z,7.86
2022-11-28T15:31:28.810Z,7.82
2022-11-28T15:35:30.691Z,7.82
2022-11-28T15:39:39.322Z,7.82
2022-11-28T15:43:45.477Z,7.84
2022-11-28T15:47:49.162Z,7.84
2022-11-28T15:51:55.815Z,7.82
2022-11-28T15:56:12.570Z,7.84
2022-11-28T16:00:16.330Z,7.84
2022-11-28T16:04:18.968Z,7.84
2022-11-28T16:08:35.120Z,7.84
2022-11-28T16:12:41.113Z,7.84
2022-11-28T16:16:42.940Z,7.86
2022-11-28T16:20:46.032Z,7.86
2022-11-28T16:24:50.636Z,7.86
2022-11-28T16:29:00.507Z,7.88
2022-11-28T16:33:02.959Z,7.89
2022-11-28T16:37:11.467Z,7.89
2022-11-28T16:41:21.179Z,7.88
2022-11-28T16:45:29.338Z,7.89
2022-11-28T16:49:35.289Z,7.89
2022-11-28T16:53:50.771Z,7.91
2022-11-28T16:57:56.966Z,7.92
2022-11-28T17:01:58.485Z,7.91
2022-11-28T17:06:00.053Z,7.92
2022-11-28T17:10:01.589Z,7.94
2022-11-28T17:14:10.171Z,7.95
2022-11-28T17:18:14.772Z,7.96
2022-11-28T17:22:21.736Z,7.99
2022-11-28T17:26:23.335Z,7.99
2022-11-28T17:30:24.916Z,8.00
2022-11-28T17:34:29.231Z,8.03
2022-11-28T17:38:32.909Z,8.03
2022-11-28T17:42:34.531Z,8.03
2022-11-28T17:46:36.039Z,8.04
2022-11-28T17:50:37.810Z,8.06
2022-11-28T17:54:40.166Z,8.07
2022-11-28T17:58:41.890Z,8.04
2022-11-28T18:02:43.596Z,8.03
2022-11-28T18:06:47.147Z,8.03
2022-11-28T18:10:49.070Z,8.03
2022-11-28T18:14:51.831Z,8.02
2022-11-28T18:18:53.596Z,8.02
2022-11-28T18:22:56.549Z,8.02
2022-11-28T18:26:58.184Z,8.00
2022-11-28T18:30:59.852Z,8.00
2022-11-28T18:35:01.684Z,8.00
2022-11-28T18:39:07.302Z,8.00
2022-11-28T18:43:08.999Z,7.99
2022-11-28T18:47:11.155Z,7.96
2022-11-28T18:51:21.260Z,7.99
2022-11-28T18:55:23.560Z,7.95
2022-11-28T18:59:25.391Z,7.96
2022-11-28T19:03:27.252Z,7.96
2022-11-28T19:07:29.260Z,7.96
2022-11-28T19:11:31.223Z,7.96
2022-11-28T19:15:33.052Z,7.95
2022-11-28T19:19:37.341Z,7.95
2022-11-28T19:23:39.762Z,7.94
2022-11-28T19:27:41.455Z,7.94
2022-11-28T19:31:43.234Z,7.92
2022-11-28T19:35:44.812Z,7.92
2022-11-28T19:39:46.857Z,7.91
2022-11-28T19:43:48.996Z,7.92
2022-11-28T19:47:50.629Z,7.92
2022-11-28T19:51:54.284Z,7.92
2022-11-28T19:55:56.766Z,7.94
2022-11-28T19:59:58.818Z,7.95
2022-11-28T20:04:00.782Z,7.95
2022-11-28T20:08:02.642Z,7.95
2022-11-28T20:12:04.533Z,8.00
2022-11-28T20:16:08.810Z,8.00
2022-11-28T20:20:11.037Z,8.03
2022-11-28T20:24:12.766Z,8.04
2022-11-28T20:28:14.391Z,8.04
2022-11-28T20:32:16.085Z,8.06
2022-11-28T20:36:19.652Z,8.07
2022-11-28T20:40:21.444Z,8.09
2022-11-28T20:44:22.995Z,8.10
2022-11-28T20:48:24.676Z,8.10
2022-11-28T20:52:26.234Z,8.10
2022-11-28T20:56:30.302Z,8.12
2022-11-28T21:00:31.856Z,8.13
2022-11-28T21:04:33.530Z,8.13
2022-11-28T21:08:36.228Z,8.13
2022-11-28T21:12:37.779Z,8.13
2022-11-28T21:16:39.357Z,8.13
2022-11-28T21:20:45.213Z,8.14
2022-11-28T21:24:50.505Z,8.13
2022-11-28T21:28:54.044Z,8.13
2022-11-28T21:32:55.583Z,8.14
2022-11-28T21:36:57.160Z,8.13
2022-11-28T21:40:59.398Z,8.14
2022-11-28T21:45:01.166Z,8.14
2022-11-28T21:49:02.779Z,8.17
2022-11-28T21:53:04.316Z,8.14
2022-11-28T21:57:07.077Z,8.14
2022-11-28T22:01:11.435Z,8.14
2022-11-28T22:05:13.933Z,8.17
2022-11-28T22:09:15.604Z,8.14
2022-11-28T22:13:17.427Z,8.14
2022-11-28T22:17:19.034Z,8.14
2022-11-28T22:21:50.685Z,8.14
2022-11-28T22:25:52.136Z,8.14
2022-11-28T22:29:54.061Z,8.17
2022-11-28T22:33:55.819Z,8.17
2022-11-28T22:37:57.429Z,8.18
2022-11-28T22:41:59.098Z,8.18
2022-11-28T22:46:01.181Z,8.20
2022-11-28T22:50:02.910Z,8.18
2022-11-28T22:54:04.837Z,8.18
2022-11-28T22:58:06.613Z,8.18
2022-11-28T23:02:09.747Z,8.20
2022-11-28T23:06:23.829Z,8.20
2022-11-28T23:10:29.004Z,8.21
2022-11-28T23:14:30.897Z,8.21
2022-11-28T23:18:33.430Z,8.22
2022-11-28T23:22:35.608Z,8.21
2022-11-28T23:26:37.631Z,8.21
2022-11-28T23:30:39.716Z,8.22
2022-11-28T23:34:41.751Z,8.21
2022-11-28T23:38:44.972Z,8.20
2022-11-28T23:42:46.594Z,8.20
2022-11-28T23:46:49.208Z,8.18
2022-11-28T23:50:50.722Z,8.20
2022-11-28T23:54:52.275Z,8.20
2022-11-28T23:58:55.218Z,8.20
